Wetterdaten: Woche 05.05.08 - 11.05.08 (KW19)
Datum Zeit Temperatur Luftfeuchte Luftdruck Niederschlag Wind Richtung Sonnenschein Solar Taupunkt Windchill Windben
05.05.2008 00:00 13.7 C 60 % 1020.2 hPa 0.0 l/m 1.1 km/h (1 Bft) N 0.00 h 0 W/m 6.1 C 13.7 C 2.7 km/h (1 Bft)
05.05.2008 01:00 12.4 C 65 % 1020.3 hPa 0.0 l/m 0.3 km/h (0 Bft) N 0.00 h 0 W/m 6.0 C 12.4 C 1.2 km/h (1 Bft)
05.05.2008 02:00 11.4 C 67 % 1020.3 hPa 0.0 l/m 0.1 km/h (0 Bft) N 0.00 h 0 W/m 5.6 C 11.4 C 0.8 km/h (0 Bft)
05.05.2008 03:00 10.6 C 69 % 1020.3 hPa 0.0 l/m 0.3 km/h (0 Bft) N 0.00 h 0 W/m 5.2 C 10.6 C 1.0 km/h (0 Bft)
05.05.2008 04:00 10.1 C 70 % 1020.7 hPa 0.0 l/m 0.3 km/h (0 Bft) O-NO 0.00 h 0 W/m 4.8 C 10.1 C 0.9 km/h (0 Bft)
05.05.2008 05:00 9.4 C 71 % 1021.1 hPa 0.0 l/m 1.2 km/h (1 Bft) O 0.00 h 0 W/m 4.3 C 9.4 C 2.7 km/h (1 Bft)
05.05.2008 06:00 8.5 C 75 % 1021.6 hPa 0.0 l/m 1.9 km/h (1 Bft) O-SO 0.03 h 19 W/m 4.3 C 8.4 C 3.6 km/h (1 Bft)
05.05.2008 07:00 9.6 C 74 % 1022.0 hPa 0.0 l/m 0.4 km/h (0 Bft) O-SO 0.52 h 118 W/m 5.2 C 9.6 C 1.2 km/h (1 Bft)
05.05.2008 08:00 12.5 C 63 % 1022.1 hPa 0.0 l/m 1.6 km/h (1 Bft) O-SO 1.00 h 328 W/m 5.7 C 12.5 C 4.3 km/h (1 Bft)
05.05.2008 09:00 14.5 C 58 % 1022.1 hPa 0.0 l/m 4.2 km/h (1 Bft) O-SO 1.00 h 501 W/m 6.3 C 14.5 C 8.2 km/h (2 Bft)
05.05.2008 10:00 16.1 C 50 % 1022.0 hPa 0.0 l/m 7.7 km/h (2 Bft) O-SO 1.00 h 655 W/m 5.7 C 16.1 C 14.0 km/h (3 Bft)
05.05.2008 11:00 17.4 C 41 % 1022.1 hPa 0.0 l/m 9.5 km/h (2 Bft) O-SO 1.00 h 777 W/m 3.9 C 17.4 C 17.6 km/h (3 Bft)
05.05.2008 12:00 18.4 C 33 % 1021.8 hPa 0.0 l/m 10.4 km/h (2 Bft) O-SO 1.00 h 851 W/m 1.7 C 18.4 C 19.7 km/h (3 Bft)
05.05.2008 13:00 19.2 C 29 % 1021.5 hPa 0.0 l/m 8.6 km/h (2 Bft) O-SO 1.00 h 873 W/m 0.8 C 19.2 C 17.3 km/h (3 Bft)
05.05.2008 14:00 19.8 C 29 % 1021.2 hPa 0.0 l/m 8.7 km/h (2 Bft) O-SO 1.00 h 842 W/m 1.4 C 19.8 C 16.1 km/h (3 Bft)
05.05.2008 15:00 20.4 C 28 % 1021.0 hPa 0.0 l/m 8.1 km/h (2 Bft) O-SO 1.00 h 762 W/m 1.1 C 20.4 C 15.3 km/h (3 Bft)
05.05.2008 16:00 20.3 C 27 % 1020.7 hPa 0.0 l/m 7.3 km/h (2 Bft) O-SO 1.00 h 638 W/m 0.9 C 20.3 C 14.0 km/h (3 Bft)
05.05.2008 17:00 20.0 C 27 % 1020.7 hPa 0.0 l/m 7.1 km/h (2 Bft) O-SO 1.00 h 481 W/m 0.7 C 20.0 C 13.5 km/h (3 Bft)
05.05.2008 18:00 19.2 C 30 % 1020.5 hPa 0.0 l/m 7.3 km/h (2 Bft) O-SO 1.00 h 302 W/m 1.0 C 19.2 C 13.7 km/h (3 Bft)
05.05.2008 19:00 18.1 C 33 % 1020.5 hPa 0.0 l/m 5.9 km/h (2 Bft) O-SO 0.78 h 127 W/m 1.4 C 18.1 C 12.3 km/h (3 Bft)
05.05.2008 20:00 16.6 C 37 % 1020.7 hPa 0.0 l/m 3.8 km/h (1 Bft) O 0.05 h 24 W/m 1.9 C 16.6 C 8.5 km/h (2 Bft)
05.05.2008 21:00 15.2 C 44 % 1021.1 hPa 0.0 l/m 1.5 km/h (1 Bft) N 0.00 h 0 W/m 2.9 C 15.2 C 3.9 km/h (1 Bft)
05.05.2008 22:00 14.1 C 49 % 1021.4 hPa 0.0 l/m 2.1 km/h (1 Bft) N-NO 0.00 h 0 W/m 3.6 C 14.1 C 5.2 km/h (1 Bft)
05.05.2008 23:00 13.4 C 52 % 1021.3 hPa 0.0 l/m 2.6 km/h (1 Bft) N-NO 0.00 h 0 W/m 3.7 C 13.4 C 6.0 km/h (2 Bft)
06.05.2008 00:00 13.1 C 54 % 1021.4 hPa 0.0 l/m 2.6 km/h (1 Bft) NO 0.00 h 0 W/m 3.9 C 13.1 C 6.1 km/h (2 Bft)
06.05.2008 01:00 12.4 C 58 % 1021.1 hPa 0.0 l/m 3.4 km/h (1 Bft) NO 0.00 h 0 W/m 4.3 C 12.4 C 7.5 km/h (2 Bft)
06.05.2008 02:00 11.3 C 63 % 1020.9 hPa 0.0 l/m 1.3 km/h (1 Bft) NO 0.00 h 0 W/m 4.5 C 11.3 C 3.7 km/h (1 Bft)
06.05.2008 03:00 10.6 C 66 % 1020.6 hPa 0.0 l/m 1.8 km/h (1 Bft) N-NO 0.00 h 0 W/m 4.5 C 10.6 C 4.4 km/h (1 Bft)
06.05.2008 04:00 10.8 C 65 % 1020.5 hPa 0.0 l/m 4.6 km/h (1 Bft) NO 0.00 h 0 W/m 4.4 C 10.8 C 10.1 km/h (2 Bft)
06.05.2008 05:00 10.5 C 66 % 1020.4 hPa 0.0 l/m 4.5 km/h (1 Bft) N-NO 0.00 h 0 W/m 4.5 C 10.5 C 9.0 km/h (2 Bft)
06.05.2008 06:00 10.6 C 67 % 1020.5 hPa 0.0 l/m 3.2 km/h (1 Bft) N-NO 0.03 h 17 W/m 4.8 C 10.6 C 7.5 km/h (2 Bft)
06.05.2008 07:00 11.6 C 65 % 1020.9 hPa 0.0 l/m 2.0 km/h (1 Bft) NO 0.53 h 117 W/m 5.3 C 11.6 C 4.9 km/h (1 Bft)
06.05.2008 08:00 13.8 C 60 % 1021.1 hPa 0.0 l/m 3.4 km/h (1 Bft) N-NO 1.00 h 323 W/m 6.2 C 13.8 C 7.7 km/h (2 Bft)
06.05.2008 09:00 15.3 C 57 % 1021.2 hPa 0.0 l/m 3.3 km/h (1 Bft) O 1.00 h 493 W/m 6.7 C 15.3 C 6.9 km/h (2 Bft)
06.05.2008 10:00 17.0 C 51 % 1021.2 hPa 0.0 l/m 4.4 km/h (1 Bft) O-SO 1.00 h 647 W/m 6.9 C 17.0 C 8.4 km/h (2 Bft)
06.05.2008 11:00 18.6 C 47 % 1020.9 hPa 0.0 l/m 6.8 km/h (2 Bft) O-SO 1.00 h 763 W/m 7.1 C 18.6 C 12.3 km/h (3 Bft)
06.05.2008 12:00 19.9 C 45 % 1020.6 hPa 0.0 l/m 7.6 km/h (2 Bft) O-SO 1.00 h 839 W/m 7.6 C 19.9 C 13.4 km/h (3 Bft)
06.05.2008 13:00 20.8 C 43 % 1020.3 hPa 0.0 l/m 8.3 km/h (2 Bft) O-SO 1.00 h 863 W/m 7.9 C 20.8 C 15.0 km/h (3 Bft)
06.05.2008 14:00 21.8 C 40 % 1019.9 hPa 0.0 l/m 8.1 km/h (2 Bft) O-SO 1.00 h 852 W/m 7.5 C 21.8 C 15.2 km/h (3 Bft)
06.05.2008 15:00 22.0 C 37 % 1019.6 hPa 0.0 l/m 9.5 km/h (2 Bft) O-SO 1.00 h 758 W/m 6.7 C 22.0 C 15.4 km/h (3 Bft)
06.05.2008 16:00 22.6 C 31 % 1019.1 hPa 0.0 l/m 7.1 km/h (2 Bft) O-SO 1.00 h 629 W/m 4.6 C 22.6 C 13.2 km/h (3 Bft)
06.05.2008 17:00 22.0 C 29 % 1018.9 hPa 0.0 l/m 7.8 km/h (2 Bft) O-SO 1.00 h 474 W/m 3.4 C 22.0 C 14.2 km/h (3 Bft)
06.05.2008 18:00 21.4 C 28 % 1018.9 hPa 0.0 l/m 8.0 km/h (2 Bft) O-SO 1.00 h 303 W/m 2.3 C 21.4 C 14.5 km/h (3 Bft)
06.05.2008 19:00 20.7 C 33 % 1018.8 hPa 0.0 l/m 3.6 km/h (1 Bft) O 0.78 h 126 W/m 3.8 C 20.7 C 7.4 km/h (2 Bft)
06.05.2008 20:00 19.1 C 38 % 1019.1 hPa 0.0 l/m 2.0 km/h (1 Bft) NO 0.03 h 23 W/m 4.5 C 19.1 C 4.7 km/h (1 Bft)
06.05.2008 21:00 17.4 C 42 % 1019.5 hPa 0.0 l/m 3.6 km/h (1 Bft) N-NO 0.00 h 0 W/m 4.4 C 17.4 C 7.6 km/h (2 Bft)
06.05.2008 22:00 16.3 C 47 % 1019.8 hPa 0.0 l/m 2.0 km/h (1 Bft) N-NO 0.00 h 0 W/m 4.9 C 16.3 C 5.1 km/h (1 Bft)
06.05.2008 23:00 14.9 C 53 % 1019.7 hPa 0.0 l/m 1.8 km/h (1 Bft) NO 0.00 h 0 W/m 5.4 C 14.9 C 4.3 km/h (1 Bft)
07.05.2008 00:00 13.4 C 62 % 1019.8 hPa 0.0 l/m 0.8 km/h (0 Bft) N-NO 0.00 h 0 W/m 6.3 C 13.4 C 2.4 km/h (1 Bft)
07.05.2008 01:00 12.6 C 67 % 1019.8 hPa 0.0 l/m 0.7 km/h (0 Bft) N-NO 0.00 h 0 W/m 6.7 C 12.6 C 2.2 km/h (1 Bft)
07.05.2008 02:00 12.0 C 72 % 1019.4 hPa 0.0 l/m 1.0 km/h (0 Bft) N-NO 0.00 h 0 W/m 7.0 C 12.0 C 2.7 km/h (1 Bft)
07.05.2008 03:00 11.4 C 75 % 1019.3 hPa 0.0 l/m 2.3 km/h (1 Bft) O-SO 0.00 h 0 W/m 7.1 C 11.4 C 4.4 km/h (1 Bft)
07.05.2008 04:00 10.0 C 80 % 1019.6 hPa 0.0 l/m 1.5 km/h (1 Bft) O 0.00 h 0 W/m 6.8 C 10.0 C 3.2 km/h (1 Bft)
07.05.2008 05:00 9.2 C 83 % 1019.7 hPa 0.0 l/m 2.7 km/h (1 Bft) O-SO 0.00 h 0 W/m 6.6 C 9.1 C 4.5 km/h (1 Bft)
07.05.2008 06:00 9.1 C 85 % 1019.9 hPa 0.0 l/m 3.2 km/h (1 Bft) O-SO 0.03 h 18 W/m 6.6 C 9.0 C 4.5 km/h (1 Bft)
07.05.2008 07:00 10.4 C 83 % 1020.2 hPa 0.0 l/m 0.6 km/h (0 Bft) O-SO 0.55 h 120 W/m 7.7 C 10.4 C 1.4 km/h (1 Bft)
07.05.2008 08:00 13.1 C 71 % 1020.4 hPa 0.0 l/m 2.7 km/h (1 Bft) O-SO 1.00 h 317 W/m 7.9 C 13.1 C 5.6 km/h (1 Bft)
07.05.2008 09:00 14.7 C 65 % 1020.0 hPa 0.0 l/m 2.6 km/h (1 Bft) O-SO 1.00 h 491 W/m 8.3 C 14.7 C 5.9 km/h (2 Bft)
07.05.2008 10:00 16.5 C 61 % 1019.8 hPa 0.0 l/m 3.2 km/h (1 Bft) N 1.00 h 645 W/m 9.0 C 16.5 C 6.6 km/h (2 Bft)
07.05.2008 11:00 18.5 C 57 % 1019.3 hPa 0.0 l/m 2.9 km/h (1 Bft) N 1.00 h 762 W/m 9.7 C 18.5 C 5.8 km/h (2 Bft)
07.05.2008 12:00 19.6 C 53 % 1019.1 hPa 0.0 l/m 6.9 km/h (2 Bft) O-SO 1.00 h 841 W/m 9.7 C 19.6 C 12.6 km/h (3 Bft)
07.05.2008 13:00 20.4 C 50 % 1018.6 hPa 0.0 l/m 8.0 km/h (2 Bft) O-SO 1.00 h 864 W/m 9.5 C 20.4 C 13.2 km/h (3 Bft)
07.05.2008 14:00 21.4 C 44 % 1018.2 hPa 0.0 l/m 7.2 km/h (2 Bft) O-SO 1.00 h 835 W/m 8.7 C 21.4 C 12.2 km/h (2 Bft)
07.05.2008 15:00 22.2 C 41 % 1017.6 hPa 0.0 l/m 6.1 km/h (2 Bft) O-SO 1.00 h 757 W/m 8.2 C 22.2 C 10.8 km/h (2 Bft)
07.05.2008 16:00 22.8 C 37 % 1016.9 hPa 0.0 l/m 4.0 km/h (1 Bft) O-SO 1.00 h 631 W/m 7.2 C 22.8 C 8.2 km/h (2 Bft)
07.05.2008 17:00 22.9 C 32 % 1016.5 hPa 0.0 l/m 4.1 km/h (1 Bft) NO 1.00 h 481 W/m 5.4 C 22.9 C 8.2 km/h (2 Bft)
07.05.2008 18:00 22.3 C 31 % 1016.2 hPa 0.0 l/m 3.1 km/h (1 Bft) O 1.00 h 308 W/m 4.5 C 22.3 C 6.6 km/h (2 Bft)
07.05.2008 19:00 21.1 C 33 % 1016.1 hPa 0.0 l/m 2.2 km/h (1 Bft) O-SO 0.68 h 127 W/m 4.2 C 21.1 C 4.5 km/h (1 Bft)
07.05.2008 20:00 18.7 C 41 % 1016.3 hPa 0.0 l/m 0.8 km/h (0 Bft) O 0.00 h 16 W/m 5.2 C 18.7 C 2.7 km/h (1 Bft)
07.05.2008 21:00 17.2 C 45 % 1016.9 hPa 0.0 l/m 2.0 km/h (1 Bft) NO 0.00 h 0 W/m 5.3 C 17.2 C 5.4 km/h (1 Bft)
07.05.2008 22:00 16.3 C 49 % 1017.2 hPa 0.0 l/m 2.0 km/h (1 Bft) NO 0.00 h 0 W/m 5.7 C 16.3 C 5.1 km/h (1 Bft)
07.05.2008 23:00 14.0 C 60 % 1017.5 hPa 0.0 l/m 0.3 km/h (0 Bft) N-NW 0.00 h 0 W/m 6.3 C 14.0 C 1.4 km/h (1 Bft)
08.05.2008 00:00 12.4 C 66 % 1017.6 hPa 0.0 l/m 0.5 km/h (0 Bft) N-NO 0.00 h 0 W/m 6.3 C 12.4 C 1.0 km/h (0 Bft)
08.05.2008 01:00 11.5 C 70 % 1017.5 hPa 0.0 l/m 0.3 km/h (0 Bft) N-NO 0.00 h 0 W/m 6.3 C 11.5 C 1.6 km/h (1 Bft)
08.05.2008 02:00 10.1 C 76 % 1017.3 hPa 0.0 l/m 1.0 km/h (0 Bft) NO 0.00 h 0 W/m 6.0 C 10.1 C 2.3 km/h (1 Bft)
08.05.2008 03:00 9.3 C 79 % 1017.2 hPa 0.0 l/m 1.8 km/h (1 Bft) O 0.00 h 0 W/m 5.9 C 9.3 C 3.2 km/h (1 Bft)
08.05.2008 04:00 7.9 C 84 % 1017.2 hPa 0.0 l/m 2.5 km/h (1 Bft) O 0.00 h 0 W/m 5.4 C 7.8 C 3.7 km/h (1 Bft)
08.05.2008 05:00 7.2 C 87 % 1017.3 hPa 0.0 l/m 2.0 km/h (1 Bft) O 0.00 h 5 W/m 5.1 C 7.1 C 3.3 km/h (1 Bft)
08.05.2008 06:00 7.0 C 88 % 1017.5 hPa 0.0 l/m 0.5 km/h (0 Bft) O 0.03 h 19 W/m 5.1 C 7.0 C 1.2 km/h (1 Bft)
08.05.2008 07:00 8.4 C 85 % 1017.9 hPa 0.0 l/m 0.4 km/h (0 Bft) O 0.58 h 127 W/m 6.0 C 8.4 C 0.9 km/h (0 Bft)
08.05.2008 08:00 11.4 C 76 % 1017.9 hPa 0.0 l/m 0.3 km/h (0 Bft) O 1.00 h 323 W/m 7.2 C 11.4 C 1.3 km/h (1 Bft)
08.05.2008 09:00 14.4 C 63 % 1017.7 hPa 0.0 l/m 0.8 km/h (0 Bft) O 1.00 h 498 W/m 7.5 C 14.4 C 2.4 km/h (1 Bft)
08.05.2008 10:00 16.8 C 54 % 1017.3 hPa 0.0 l/m 5.2 km/h (1 Bft) O-SO 1.00 h 653 W/m 7.3 C 16.8 C 8.7 km/h (2 Bft)
08.05.2008 11:00 18.8 C 49 % 1016.9 hPa 0.0 l/m 3.7 km/h (1 Bft) O-SO 1.00 h 772 W/m 7.9 C 18.8 C 6.8 km/h (2 Bft)
08.05.2008 12:00 20.5 C 43 % 1016.2 hPa 0.0 l/m 3.6 km/h (1 Bft) O-SO 1.00 h 850 W/m 7.5 C 20.5 C 6.7 km/h (2 Bft)
08.05.2008 13:00 21.6 C 39 % 1015.6 hPa 0.0 l/m 4.6 km/h (1 Bft) O-SO 1.00 h 875 W/m 6.8 C 21.6 C 8.9 km/h (2 Bft)
08.05.2008 14:00 22.2 C 36 % 1015.2 hPa 0.0 l/m 5.7 km/h (1 Bft) O-SO 1.00 h 845 W/m 6.3 C 22.2 C 9.4 km/h (2 Bft)
08.05.2008 15:00 22.8 C 33 % 1014.8 hPa 0.0 l/m 7.7 km/h (2 Bft) O-SO 1.00 h 769 W/m 5.7 C 22.8 C 12.8 km/h (3 Bft)
08.05.2008 16:00 23.1 C 30 % 1014.5 hPa 0.0 l/m 6.6 km/h (2 Bft) O-SO 1.00 h 650 W/m 4.5 C 23.1 C 11.5 km/h (2 Bft)
08.05.2008 17:00 23.1 C 29 % 1014.1 hPa 0.0 l/m 6.6 km/h (2 Bft) O-SO 1.00 h 494 W/m 4.2 C 23.1 C 11.2 km/h (2 Bft)
08.05.2008 18:00 23.0 C 30 % 1013.8 hPa 0.0 l/m 5.7 km/h (1 Bft) O-SO 1.00 h 317 W/m 4.5 C 23.0 C 10.4 km/h (2 Bft)
08.05.2008 19:00 22.1 C 31 % 1013.4 hPa 0.0 l/m 3.7 km/h (1 Bft) O 0.77 h 133 W/m 4.1 C 22.1 C 7.0 km/h (2 Bft)
08.05.2008 20:00 20.1 C 38 % 1013.5 hPa 0.0 l/m 0.6 km/h (0 Bft) O-NO 0.07 h 24 W/m 5.1 C 20.1 C 1.9 km/h (1 Bft)
08.05.2008 21:00 17.5 C 47 % 1014.0 hPa 0.0 l/m 1.1 km/h (0 Bft) NO 0.00 h 0 W/m 6.2 C 17.5 C 3.2 km/h (1 Bft)
08.05.2008 22:00 15.8 C 51 % 1014.3 hPa 0.0 l/m 0.3 km/h (0 Bft) NO 0.00 h 0 W/m 5.8 C 15.8 C 1.6 km/h (1 Bft)
08.05.2008 23:00 14.3 C 57 % 1014.4 hPa 0.0 l/m 0.1 km/h (0 Bft) NO 0.00 h 0 W/m 6.0 C 14.3 C 0.9 km/h (0 Bft)
09.05.2008 00:00 12.9 C 61 % 1014.6 hPa 0.0 l/m 0.5 km/h (0 Bft) NO 0.00 h 0 W/m 5.6 C 12.9 C 1.6 km/h (1 Bft)
09.05.2008 01:00 11.5 C 65 % 1014.8 hPa 0.0 l/m 2.3 km/h (1 Bft) NO 0.00 h 0 W/m 5.2 C 11.5 C 3.7 km/h (1 Bft)
09.05.2008 02:00 10.7 C 70 % 1014.4 hPa 0.0 l/m 2.9 km/h (1 Bft) O 0.00 h 0 W/m 5.3 C 10.7 C 4.2 km/h (1 Bft)
09.05.2008 03:00 9.3 C 76 % 1014.4 hPa 0.0 l/m 1.4 km/h (1 Bft) O-SO 0.00 h 0 W/m 5.3 C 9.3 C 2.6 km/h (1 Bft)
09.05.2008 04:00 8.7 C 79 % 1014.4 hPa 0.0 l/m 0.8 km/h (0 Bft) O-SO 0.00 h 0 W/m 5.2 C 8.7 C 1.6 km/h (1 Bft)
09.05.2008 05:00 8.1 C 81 % 1014.2 hPa 0.0 l/m 0.6 km/h (0 Bft) O-SO 0.00 h 5 W/m 5.1 C 8.1 C 1.3 km/h (1 Bft)
09.05.2008 06:00 7.5 C 85 % 1014.5 hPa 0.0 l/m 0.2 km/h (0 Bft) O-SO 0.03 h 19 W/m 5.2 C 7.5 C 0.9 km/h (0 Bft)
09.05.2008 07:00 9.1 C 81 % 1014.8 hPa 0.0 l/m 0.1 km/h (0 Bft) O-SO 0.60 h 128 W/m 6.0 C 9.1 C 1.1 km/h (1 Bft)
09.05.2008 08:00 12.7 C 70 % 1014.6 hPa 0.0 l/m 0.1 km/h (0 Bft) O-SO 1.00 h 320 W/m 7.3 C 12.7 C 0.9 km/h (0 Bft)
09.05.2008 09:00 16.1 C 51 % 1014.4 hPa 0.0 l/m 3.1 km/h (1 Bft) O-SO 1.00 h 493 W/m 5.9 C 16.1 C 6.3 km/h (2 Bft)
09.05.2008 10:00 18.2 C 47 % 1014.0 hPa 0.0 l/m 3.0 km/h (1 Bft) O-SO 1.00 h 644 W/m 6.7 C 18.2 C 6.1 km/h (2 Bft)
09.05.2008 11:00 19.9 C 46 % 1013.4 hPa 0.0 l/m 3.9 km/h (1 Bft) O-SO 1.00 h 765 W/m 8.0 C 19.9 C 7.4 km/h (2 Bft)
09.05.2008 12:00 21.6 C 46 % 1012.9 hPa 0.0 l/m 2.7 km/h (1 Bft) O-SO 1.00 h 824 W/m 9.3 C 21.6 C 5.8 km/h (2 Bft)
09.05.2008 13:00 22.8 C 41 % 1012.5 hPa 0.0 l/m 9.1 km/h (2 Bft) O-SO 1.00 h 808 W/m 8.7 C 22.8 C 14.6 km/h (3 Bft)
09.05.2008 14:00 23.8 C 38 % 1012.1 hPa 0.0 l/m 10.1 km/h (2 Bft) O-SO 1.00 h 812 W/m 8.5 C 23.8 C 16.6 km/h (3 Bft)
09.05.2008 15:00 24.6 C 33 % 1011.6 hPa 0.0 l/m 7.8 km/h (2 Bft) O-SO 1.00 h 759 W/m 7.3 C 24.6 C 13.0 km/h (3 Bft)
09.05.2008 16:00 25.1 C 28 % 1011.3 hPa 0.0 l/m 4.9 km/h (1 Bft) O 0.93 h 574 W/m 5.4 C 25.1 C 9.5 km/h (2 Bft)
09.05.2008 17:00 24.7 C 28 % 1011.0 hPa 0.0 l/m 3.3 km/h (1 Bft) O-SO 0.92 h 396 W/m 5.1 C 24.7 C 6.1 km/h (2 Bft)
09.05.2008 18:00 24.4 C 28 % 1010.8 hPa 0.0 l/m 2.8 km/h (1 Bft) O 0.80 h 279 W/m 4.8 C 24.4 C 6.1 km/h (2 Bft)
09.05.2008 19:00 23.4 C 32 % 1010.9 hPa 0.0 l/m 1.0 km/h (0 Bft) O-NO 0.52 h 125 W/m 5.5 C 23.4 C 3.0 km/h (1 Bft)
09.05.2008 20:00 21.3 C 39 % 1011.1 hPa 0.0 l/m 2.6 km/h (1 Bft) NO 0.03 h 20 W/m 6.8 C 21.3 C 6.1 km/h (2 Bft)
09.05.2008 21:00 19.5 C 44 % 1011.6 hPa 0.0 l/m 2.5 km/h (1 Bft) N-NO 0.00 h 0 W/m 6.8 C 19.5 C 5.8 km/h (2 Bft)
09.05.2008 22:00 18.6 C 43 % 1011.9 hPa 0.0 l/m 3.5 km/h (1 Bft) N-NO 0.00 h 0 W/m 5.8 C 18.6 C 7.2 km/h (2 Bft)
09.05.2008 23:00 17.0 C 48 % 1012.3 hPa 0.0 l/m 1.2 km/h (1 Bft) N 0.00 h 0 W/m 5.9 C 17.0 C 3.3 km/h (1 Bft)
10.05.2008 00:00 15.7 C 52 % 1012.5 hPa 0.0 l/m 1.4 km/h (1 Bft) O-SO 0.00 h 0 W/m 5.7 C 15.7 C 2.9 km/h (1 Bft)
10.05.2008 01:00 14.1 C 57 % 1012.7 hPa 0.0 l/m 2.8 km/h (1 Bft) O-SO 0.00 h 0 W/m 5.7 C 14.1 C 4.6 km/h (1 Bft)
10.05.2008 02:00 13.0 C 62 % 1012.6 hPa 0.0 l/m 0.7 km/h (0 Bft) SO 0.00 h 0 W/m 6.0 C 13.0 C 1.8 km/h (1 Bft)
10.05.2008 03:00 11.8 C 68 % 1012.6 hPa 0.0 l/m 2.3 km/h (1 Bft) SO 0.00 h 0 W/m 6.0 C 11.8 C 3.5 km/h (1 Bft)
10.05.2008 04:00 10.9 C 73 % 1013.0 hPa 0.0 l/m 0.4 km/h (0 Bft) SO 0.00 h 0 W/m 6.1 C 10.9 C 1.2 km/h (1 Bft)
10.05.2008 05:00 10.5 C 73 % 1013.1 hPa 0.0 l/m 1.8 km/h (1 Bft) O 0.00 h 6 W/m 5.9 C 10.5 C 3.4 km/h (1 Bft)
10.05.2008 06:00 9.9 C 77 % 1013.4 hPa 0.0 l/m 0.5 km/h (0 Bft) O-SO 0.07 h 26 W/m 6.1 C 9.9 C 1.0 km/h (0 Bft)
10.05.2008 07:00 11.3 C 77 % 1013.8 hPa 0.0 l/m 0.0 km/h (0 Bft) N 0.63 h 142 W/m 7.4 C 11.3 C 0.4 km/h (0 Bft)
10.05.2008 08:00 15.0 C 63 % 1013.6 hPa 0.0 l/m 3.2 km/h (1 Bft) O-SO 1.00 h 332 W/m 7.9 C 15.0 C 6.8 km/h (2 Bft)
10.05.2008 09:00 17.1 C 57 % 1013.6 hPa 0.0 l/m 3.7 km/h (1 Bft) O-SO 1.00 h 498 W/m 8.4 C 17.1 C 7.7 km/h (2 Bft)
10.05.2008 10:00 19.0 C 53 % 1013.4 hPa 0.0 l/m 3.5 km/h (1 Bft) O-SO 1.00 h 647 W/m 9.2 C 19.0 C 6.9 km/h (2 Bft)
10.05.2008 11:00 20.9 C 49 % 1013.1 hPa 0.0 l/m 3.7 km/h (1 Bft) O-SO 1.00 h 765 W/m 9.6 C 20.9 C 7.5 km/h (2 Bft)
10.05.2008 12:00 22.1 C 46 % 1013.0 hPa 0.0 l/m 7.5 km/h (2 Bft) O-SO 1.00 h 840 W/m 9.8 C 22.1 C 13.1 km/h (3 Bft)
10.05.2008 13:00 23.2 C 42 % 1012.7 hPa 0.0 l/m 9.6 km/h (2 Bft) O-SO 1.00 h 861 W/m 9.5 C 23.2 C 16.3 km/h (3 Bft)
10.05.2008 14:00 24.4 C 36 % 1012.4 hPa 0.0 l/m 12.2 km/h (2 Bft) O-SO 1.00 h 833 W/m 8.5 C 24.4 C 19.6 km/h (3 Bft)
10.05.2008 15:00 25.4 C 32 % 1011.9 hPa 0.0 l/m 8.1 km/h (2 Bft) O-SO 1.00 h 760 W/m 7.4 C 25.4 C 14.7 km/h (3 Bft)
10.05.2008 16:00 26.0 C 29 % 1011.4 hPa 0.0 l/m 6.0 km/h (2 Bft) O-SO 1.00 h 641 W/m 6.6 C 26.0 C 12.4 km/h (3 Bft)
10.05.2008 17:00 25.6 C 30 % 1011.4 hPa 0.0 l/m 6.8 km/h (2 Bft) O-SO 1.00 h 480 W/m 6.7 C 25.6 C 13.5 km/h (3 Bft)
10.05.2008 18:00 24.8 C 30 % 1011.4 hPa 0.0 l/m 6.1 km/h (2 Bft) O-SO 1.00 h 306 W/m 6.1 C 24.8 C 11.8 km/h (2 Bft)
10.05.2008 19:00 23.7 C 31 % 1011.5 hPa 0.0 l/m 4.3 km/h (1 Bft) O-SO 0.87 h 136 W/m 5.5 C 23.7 C 8.9 km/h (2 Bft)
10.05.2008 20:00 22.0 C 31 % 1012.1 hPa 0.0 l/m 4.1 km/h (1 Bft) NO 0.13 h 28 W/m 3.9 C 22.0 C 8.5 km/h (2 Bft)
10.05.2008 21:00 19.9 C 35 % 1012.9 hPa 0.0 l/m 2.8 km/h (1 Bft) NO 0.00 h 0 W/m 4.0 C 19.9 C 6.1 km/h (2 Bft)
10.05.2008 22:00 18.9 C 36 % 1013.4 hPa 0.0 l/m 3.3 km/h (1 Bft) NO 0.00 h 0 W/m 3.5 C 18.9 C 7.4 km/h (2 Bft)
10.05.2008 23:00 17.8 C 40 % 1013.4 hPa 0.0 l/m 2.8 km/h (1 Bft) NO 0.00 h 0 W/m 4.0 C 17.8 C 6.3 km/h (2 Bft)
11.05.2008 00:00 17.0 C 44 % 1013.8 hPa 0.0 l/m 2.3 km/h (1 Bft) NO 0.00 h 0 W/m 4.6 C 17.0 C 5.6 km/h (1 Bft)
11.05.2008 01:00 15.9 C 49 % 1013.9 hPa 0.0 l/m 2.0 km/h (1 Bft) N-NO 0.00 h 0 W/m 5.1 C 15.9 C 4.2 km/h (1 Bft)
11.05.2008 02:00 15.0 C 52 % 1013.9 hPa 0.0 l/m 0.9 km/h (0 Bft) O 0.00 h 0 W/m 5.3 C 15.0 C 2.6 km/h (1 Bft)
11.05.2008 03:00 14.7 C 54 % 1013.8 hPa 0.0 l/m 1.5 km/h (1 Bft) O-NO 0.00 h 0 W/m 5.6 C 14.7 C 3.7 km/h (1 Bft)
11.05.2008 04:00 13.3 C 61 % 1014.1 hPa 0.0 l/m 0.5 km/h (0 Bft) N-NO 0.00 h 0 W/m 6.0 C 13.3 C 2.0 km/h (1 Bft)
11.05.2008 05:00 11.4 C 70 % 1014.3 hPa 0.0 l/m 1.0 km/h (0 Bft) N-NO 0.00 h 6 W/m 6.2 C 11.4 C 2.2 km/h (1 Bft)
11.05.2008 06:00 11.0 C 73 % 1014.6 hPa 0.0 l/m 1.1 km/h (1 Bft) O 0.05 h 24 W/m 6.4 C 11.0 C 2.7 km/h (1 Bft)
11.05.2008 07:00 12.4 C 68 % 1014.7 hPa 0.0 l/m 0.5 km/h (0 Bft) O 0.63 h 129 W/m 6.7 C 12.4 C 1.9 km/h (1 Bft)
11.05.2008 08:00 14.3 C 60 % 1014.6 hPa 0.0 l/m 2.8 km/h (1 Bft) O-SO 1.00 h 311 W/m 6.8 C 14.3 C 6.0 km/h (2 Bft)
11.05.2008 09:00 15.6 C 57 % 1014.6 hPa 0.0 l/m 3.7 km/h (1 Bft) O-SO 1.00 h 482 W/m 7.2 C 15.6 C 7.4 km/h (2 Bft)
11.05.2008 10:00 17.5 C 54 % 1014.4 hPa 0.0 l/m 2.7 km/h (1 Bft) O-SO 1.00 h 635 W/m 8.2 C 17.5 C 6.0 km/h (2 Bft)
11.05.2008 11:00 19.0 C 52 % 1014.3 hPa 0.0 l/m 4.0 km/h (1 Bft) SO 1.00 h 753 W/m 8.9 C 19.0 C 7.3 km/h (2 Bft)
11.05.2008 12:00 20.3 C 50 % 1014.2 hPa 0.0 l/m 4.5 km/h (1 Bft) SO 1.00 h 842 W/m 9.4 C 20.3 C 8.1 km/h (2 Bft)
11.05.2008 13:00 21.1 C 50 % 1013.7 hPa 0.0 l/m 6.0 km/h (2 Bft) SO 1.00 h 868 W/m 10.2 C 21.1 C 10.7 km/h (2 Bft)
11.05.2008 14:00 22.0 C 46 % 1013.0 hPa 0.0 l/m 9.0 km/h (2 Bft) O-SO 1.00 h 813 W/m 9.8 C 22.0 C 13.8 km/h (3 Bft)
11.05.2008 15:00 23.0 C 43 % 1012.3 hPa 0.0 l/m 8.9 km/h (2 Bft) O-SO 1.00 h 747 W/m 9.7 C 23.0 C 14.3 km/h (3 Bft)
11.05.2008 16:00 23.4 C 40 % 1011.9 hPa 0.0 l/m 7.9 km/h (2 Bft) O-SO 1.00 h 664 W/m 9.0 C 23.4 C 13.3 km/h (3 Bft)
11.05.2008 17:00 22.6 C 44 % 1012.0 hPa 0.0 l/m 8.8 km/h (2 Bft) SO 0.82 h 378 W/m 9.6 C 22.6 C 14.0 km/h (3 Bft)
11.05.2008 18:00 20.8 C 46 % 1012.7 hPa 0.0 l/m 5.8 km/h (2 Bft) SO 0.40 h 172 W/m 8.8 C 20.8 C 9.9 km/h (2 Bft)
11.05.2008 19:00 19.0 C 48 % 1013.7 hPa 0.0 l/m 4.6 km/h (1 Bft) S-SO 0.00 h 47 W/m 7.7 C 19.0 C 8.3 km/h (2 Bft)
11.05.2008 20:00 16.2 C 58 % 1014.7 hPa 0.0 l/m 2.9 km/h (1 Bft) O-SO 0.00 h 18 W/m 7.9 C 16.2 C 5.4 km/h (1 Bft)
11.05.2008 21:00 14.2 C 70 % 1014.8 hPa 0.0 l/m 2.0 km/h (1 Bft) S-SO 0.00 h 0 W/m 8.8 C 14.2 C 4.3 km/h (1 Bft)
11.05.2008 22:00 12.7 C 79 % 1014.7 hPa 0.0 l/m 3.6 km/h (1 Bft) O-SO 0.00 h 0 W/m 9.1 C 12.7 C 5.3 km/h (1 Bft)
11.05.2008 23:00 11.7 C 82 % 1015.0 hPa 0.0 l/m 3.2 km/h (1 Bft) O 0.00 h 0 W/m 8.6 C 11.7 C 4.8 km/h (1 Bft)
Min-Datum _ 08.05.08 05.05.08 09.05.08 - 05.05.08 - - - 05.05.08 08.05.08 05.05.08
_ Min-Zeit 05:37 15:48 18:15 - 00:03 - - - 16:39 05:36 00:02
Minimum _ 6.6 C 23 % 1010.8 hPa - 0.0 km/h (0 Bft) - - - -1.5 C 5.9 C 0.0 km/h (0 Bft)
Max-Datum _ 10.05.08 08.05.08 05.05.08 05.05.08 05.05.08 - 05.05.08 11.05.08 11.05.08 10.05.08 05.05.08
_ Max-Zeit 16:27 06:37 08:00 00:00 15:38 - 06:15 13:02 13:09 16:27 15:38
Maximum _ 26.4 C 90 % 1022.1 hPa 0.0 l/m 24.3 km/h
O-SO (4 Bft)
- 0.02 h 954 W/m 12.5 C 26.4 C 38.2 km/h
O-SO (5 Bft)
Durchschnitt _ 16.6 C 53 % 1016.5 hPa #0.0 l/m 3.6 km/h (1 Bft) O-SO #84:55 h 461 W/m 6.1 C 16.6 C 7.0 km/h (2 Bft)
© Kaiko 2008